sensor_id;sensor_type;location;lat;lon;timestamp;pressure;altitude;pressure_sealevel;temperature;humidity
74716;BME280;63234;37.558;127.058;2023-09-08T00:02:08;100149.97;;;22.23;60.85
74716;BME280;63234;37.558;127.058;2023-09-08T00:04:34;100158.38;;;22.21;60.93
74716;BME280;63234;37.558;127.058;2023-09-08T00:07:00;100155.59;;;22.26;60.57
74716;BME280;63234;37.558;127.058;2023-09-08T00:09:27;100153.78;;;22.35;60.53
74716;BME280;63234;37.558;127.058;2023-09-08T00:11:53;100147.38;;;22.31;60.18
74716;BME280;63234;37.558;127.058;2023-09-08T00:14:22;100145.75;;;22.30;59.96
74716;BME280;63234;37.558;127.058;2023-09-08T00:16:48;100125.53;;;22.09;59.90
74716;BME280;63234;37.558;127.058;2023-09-08T00:19:14;100144.47;;;22.28;60.11
74716;BME280;63234;37.558;127.058;2023-09-08T00:21:40;100149.44;;;22.20;59.71
74716;BME280;63234;37.558;127.058;2023-09-08T00:24:08;100141.53;;;22.24;59.35
74716;BME280;63234;37.558;127.058;2023-09-08T00:26:34;100148.94;;;22.18;59.40
74716;BME280;63234;37.558;127.058;2023-09-08T00:29:00;100153.13;;;22.11;60.12
74716;BME280;63234;37.558;127.058;2023-09-08T00:31:26;100157.72;;;22.10;60.21
74716;BME280;63234;37.558;127.058;2023-09-08T00:33:52;100156.22;;;22.04;60.30
74716;BME280;63234;37.558;127.058;2023-09-08T00:36:18;100156.00;;;22.01;60.09
74716;BME280;63234;37.558;127.058;2023-09-08T00:38:44;100165.81;;;21.96;60.24
74716;BME280;63234;37.558;127.058;2023-09-08T00:41:10;100160.69;;;21.95;60.39
74716;BME280;63234;37.558;127.058;2023-09-08T00:43:37;100156.69;;;22.06;59.63
74716;BME280;63234;37.558;127.058;2023-09-08T00:46:03;100161.31;;;22.06;59.74
74716;BME280;63234;37.558;127.058;2023-09-08T00:48:29;100155.88;;;21.92;60.06
74716;BME280;63234;37.558;127.058;2023-09-08T00:50:56;100163.09;;;21.96;60.16
74716;BME280;63234;37.558;127.058;2023-09-08T00:53:23;100157.53;;;21.88;60.42
74716;BME280;63234;37.558;127.058;2023-09-08T00:55:50;100158.25;;;21.80;60.54
74716;BME280;63234;37.558;127.058;2023-09-08T00:58:17;100158.25;;;21.80;60.64
74716;BME280;63234;37.558;127.058;2023-09-08T01:00:43;100153.16;;;21.40;61.45
74716;BME280;63234;37.558;127.058;2023-09-08T01:03:11;100154.53;;;21.57;61.08
74716;BME280;63234;37.558;127.058;2023-09-08T01:05:38;100150.38;;;21.64;61.29
74716;BME280;63234;37.558;127.058;2023-09-08T01:08:05;100153.13;;;21.59;61.43
74716;BME280;63234;37.558;127.058;2023-09-08T01:10:31;100147.06;;;21.48;61.38
74716;BME280;63234;37.558;127.058;2023-09-08T01:12:57;100149.84;;;21.62;61.18
74716;BME280;63234;37.558;127.058;2023-09-08T01:15:23;100144.50;;;21.57;61.58
74716;BME280;63234;37.558;127.058;2023-09-08T01:17:49;100145.59;;;21.56;61.46
74716;BME280;63234;37.558;127.058;2023-09-08T01:20:18;100144.94;;;21.64;60.83
74716;BME280;63234;37.558;127.058;2023-09-08T01:25:26;100148.53;;;21.60;61.29
74716;BME280;63234;37.558;127.058;2023-09-08T01:27:54;100152.16;;;21.31;61.90
74716;BME280;63234;37.558;127.058;2023-09-08T01:30:23;100153.44;;;21.39;62.00
74716;BME280;63234;37.558;127.058;2023-09-08T01:32:51;100152.84;;;21.42;61.99
74716;BME280;63234;37.558;127.058;2023-09-08T01:35:18;100150.22;;;21.37;62.17
74716;BME280;63234;37.558;127.058;2023-09-08T01:37:46;100142.16;;;21.50;61.72
74716;BME280;63234;37.558;127.058;2023-09-08T01:40:12;100145.31;;;21.58;61.33
74716;BME280;63234;37.558;127.058;2023-09-08T01:42:39;100142.38;;;21.54;61.55
74716;BME280;63234;37.558;127.058;2023-09-08T01:45:05;100144.72;;;21.42;62.21
74716;BME280;63234;37.558;127.058;2023-09-08T01:47:32;100147.72;;;21.59;61.20
74716;BME280;63234;37.558;127.058;2023-09-08T01:49:59;100139.25;;;21.47;61.94
74716;BME280;63234;37.558;127.058;2023-09-08T01:52:25;100142.53;;;21.44;62.27
74716;BME280;63234;37.558;127.058;2023-09-08T01:54:51;100143.84;;;21.27;63.00
74716;BME280;63234;37.558;127.058;2023-09-08T01:57:18;100149.66;;;21.40;63.07
74716;BME280;63234;37.558;127.058;2023-09-08T01:59:44;100148.81;;;21.39;62.69
74716;BME280;63234;37.558;127.058;2023-09-08T02:02:11;100140.94;;;21.43;62.77
74716;BME280;63234;37.558;127.058;2023-09-08T02:04:55;100142.63;;;21.15;62.90
74716;BME280;63234;37.558;127.058;2023-09-08T02:07:21;100139.59;;;21.21;62.98
74716;BME280;63234;37.558;127.058;2023-09-08T02:09:47;100138.06;;;21.15;63.52
74716;BME280;63234;37.558;127.058;2023-09-08T02:12:13;100150.31;;;21.26;62.91
74716;BME280;63234;37.558;127.058;2023-09-08T02:14:39;100154.22;;;21.39;62.36
74716;BME280;63234;37.558;127.058;2023-09-08T02:17:05;100145.38;;;21.34;62.32
74716;BME280;63234;37.558;127.058;2023-09-08T02:19:32;100139.44;;;21.13;63.13
74716;BME280;63234;37.558;127.058;2023-09-08T02:21:57;100149.88;;;21.00;63.22
74716;BME280;63234;37.558;127.058;2023-09-08T02:24:23;100136.81;;;20.83;63.74
74716;BME280;63234;37.558;127.058;2023-09-08T02:26:50;100145.91;;;20.93;63.02
74716;BME280;63234;37.558;127.058;2023-09-08T02:29:16;100143.84;;;20.84;62.99
74716;BME280;63234;37.558;127.058;2023-09-08T02:31:41;100142.00;;;20.80;63.20
74716;BME280;63234;37.558;127.058;2023-09-08T02:34:07;100135.34;;;20.72;63.80
74716;BME280;63234;37.558;127.058;2023-09-08T02:36:33;100139.66;;;20.73;63.65
74716;BME280;63234;37.558;127.058;2023-09-08T02:38:59;100144.41;;;20.81;63.33
74716;BME280;63234;37.558;127.058;2023-09-08T02:41:25;100144.00;;;20.69;63.46
74716;BME280;63234;37.558;127.058;2023-09-08T02:43:51;100147.25;;;20.71;63.51
74716;BME280;63234;37.558;127.058;2023-09-08T02:46:17;100145.88;;;20.74;63.62
74716;BME280;63234;37.558;127.058;2023-09-08T02:48:43;100158.09;;;20.66;63.78
74716;BME280;63234;37.558;127.058;2023-09-08T02:51:09;100159.56;;;20.58;64.37
74716;BME280;63234;37.558;127.058;2023-09-08T02:53:35;100151.06;;;20.41;64.38
74716;BME280;63234;37.558;127.058;2023-09-08T02:56:01;100173.31;;;20.57;64.25
74716;BME280;63234;37.558;127.058;2023-09-08T02:58:29;100164.94;;;20.58;64.28
74716;BME280;63234;37.558;127.058;2023-09-08T03:00:56;100161.91;;;20.65;64.21
74716;BME280;63234;37.558;127.058;2023-09-08T03:03:22;100171.16;;;20.59;64.30
74716;BME280;63234;37.558;127.058;2023-09-08T03:05:48;100163.75;;;20.70;63.92
74716;BME280;63234;37.558;127.058;2023-09-08T03:08:19;100161.63;;;20.67;63.75
74716;BME280;63234;37.558;127.058;2023-09-08T03:10:48;100158.06;;;20.71;63.87
74716;BME280;63234;37.558;127.058;2023-09-08T03:13:14;100174.22;;;20.76;64.16
74716;BME280;63234;37.558;127.058;2023-09-08T03:15:40;100163.97;;;20.73;63.13
74716;BME280;63234;37.558;127.058;2023-09-08T03:18:06;100170.00;;;20.65;63.75
74716;BME280;63234;37.558;127.058;2023-09-08T03:20:32;100152.59;;;20.52;63.67
74716;BME280;63234;37.558;127.058;2023-09-08T03:22:58;100177.00;;;20.66;63.29
74716;BME280;63234;37.558;127.058;2023-09-08T03:25:24;100173.31;;;20.57;63.27
74716;BME280;63234;37.558;127.058;2023-09-08T03:27:50;100176.16;;;20.42;63.84
74716;BME280;63234;37.558;127.058;2023-09-08T03:30:16;100178.63;;;20.38;63.94
74716;BME280;63234;37.558;127.058;2023-09-08T03:32:42;100176.22;;;20.36;64.10
74716;BME280;63234;37.558;127.058;2023-09-08T03:35:08;100164.44;;;20.27;64.03
74716;BME280;63234;37.558;127.058;2023-09-08T03:37:35;100172.53;;;20.27;64.22
74716;BME280;63234;37.558;127.058;2023-09-08T03:40:01;100177.75;;;20.19;64.67
74716;BME280;63234;37.558;127.058;2023-09-08T03:42:28;100172.72;;;20.07;65.34
74716;BME280;63234;37.558;127.058;2023-09-08T03:44:54;100169.00;;;20.27;64.89
74716;BME280;63234;37.558;127.058;2023-09-08T03:47:20;100167.13;;;20.27;64.92
74716;BME280;63234;37.558;127.058;2023-09-08T03:49:46;100166.84;;;20.29;64.49
74716;BME280;63234;37.558;127.058;2023-09-08T03:52:12;100166.00;;;20.33;64.53
74716;BME280;63234;37.558;127.058;2023-09-08T03:54:38;100167.69;;;20.24;65.03
74716;BME280;63234;37.558;127.058;2023-09-08T03:57:04;100179.19;;;20.35;64.54
74716;BME280;63234;37.558;127.058;2023-09-08T03:59:30;100173.22;;;20.38;64.60
74716;BME280;63234;37.558;127.058;2023-09-08T04:01:56;100172.88;;;20.45;64.17
74716;BME280;63234;37.558;127.058;2023-09-08T04:04:22;100180.72;;;20.46;64.27
74716;BME280;63234;37.558;127.058;2023-09-08T04:06:48;100171.50;;;20.47;63.94
74716;BME280;63234;37.558;127.058;2023-09-08T04:09:14;100177.97;;;20.51;63.69
74716;BME280;63234;37.558;127.058;2023-09-08T04:11:40;100177.81;;;20.37;63.82
74716;BME280;63234;37.558;127.058;2023-09-08T04:14:06;100177.59;;;20.34;63.93
74716;BME280;63234;37.558;127.058;2023-09-08T04:16:32;100173.28;;;20.33;63.72
74716;BME280;63234;37.558;127.058;2023-09-08T04:18:58;100178.41;;;20.34;63.86
74716;BME280;63234;37.558;127.058;2023-09-08T04:21:24;100179.44;;;20.38;63.77
74716;BME280;63234;37.558;127.058;2023-09-08T04:23:50;100186.03;;;20.27;64.16
74716;BME280;63234;37.558;127.058;2023-09-08T04:26:16;100183.19;;;20.43;63.57
74716;BME280;63234;37.558;127.058;2023-09-08T04:28:42;100176.03;;;20.28;63.56
74716;BME280;63234;37.558;127.058;2023-09-08T04:31:08;100185.47;;;20.30;63.31
74716;BME280;63234;37.558;127.058;2023-09-08T04:33:34;100177.94;;;20.27;63.60
74716;BME280;63234;37.558;127.058;2023-09-08T04:36:00;100181.25;;;20.19;63.90
74716;BME280;63234;37.558;127.058;2023-09-08T04:38:26;100179.06;;;20.21;63.84
74716;BME280;63234;37.558;127.058;2023-09-08T04:40:52;100180.72;;;20.17;63.70
74716;BME280;63234;37.558;127.058;2023-09-08T04:43:18;100184.22;;;20.17;63.70
74716;BME280;63234;37.558;127.058;2023-09-08T04:45:43;100190.59;;;19.98;64.35
74716;BME280;63234;37.558;127.058;2023-09-08T04:48:09;100191.72;;;19.91;65.28
74716;BME280;63234;37.558;127.058;2023-09-08T04:50:37;100184.66;;;19.96;65.33
74716;BME280;63234;37.558;127.058;2023-09-08T04:53:03;100196.75;;;20.03;65.44
74716;BME280;63234;37.558;127.058;2023-09-08T04:55:29;100187.13;;;19.92;65.33
74716;BME280;63234;37.558;127.058;2023-09-08T04:57:55;100180.94;;;19.91;65.54
74716;BME280;63234;37.558;127.058;2023-09-08T05:00:21;100185.59;;;19.81;65.64
74716;BME280;63234;37.558;127.058;2023-09-08T05:02:47;100188.00;;;19.82;65.38
74716;BME280;63234;37.558;127.058;2023-09-08T05:05:13;100199.59;;;19.83;65.34
74716;BME280;63234;37.558;127.058;2023-09-08T05:07:39;100202.03;;;19.84;65.73
74716;BME280;63234;37.558;127.058;2023-09-08T05:10:05;100206.13;;;19.77;65.95
74716;BME280;63234;37.558;127.058;2023-09-08T05:12:31;100198.72;;;19.92;65.66
74716;BME280;63234;37.558;127.058;2023-09-08T05:14:57;100202.22;;;19.93;65.46
74716;BME280;63234;37.558;127.058;2023-09-08T05:17:32;100203.16;;;19.78;67.15
74716;BME280;63234;37.558;127.058;2023-09-08T05:19:58;100202.06;;;19.79;68.16
74716;BME280;63234;37.558;127.058;2023-09-08T05:22:24;100208.56;;;19.78;68.74
74716;BME280;63234;37.558;127.058;2023-09-08T05:24:50;100209.38;;;19.79;69.25
74716;BME280;63234;37.558;127.058;2023-09-08T05:27:16;100211.00;;;19.75;69.80
74716;BME280;63234;37.558;127.058;2023-09-08T05:29:42;100216.94;;;19.71;69.72
74716;BME280;63234;37.558;127.058;2023-09-08T05:32:07;100206.75;;;19.58;70.53
74716;BME280;63234;37.558;127.058;2023-09-08T05:34:33;100207.31;;;19.50;70.95
74716;BME280;63234;37.558;127.058;2023-09-08T05:36:59;100214.34;;;19.51;70.55
74716;BME280;63234;37.558;127.058;2023-09-08T05:39:25;100221.03;;;19.59;70.11
74716;BME280;63234;37.558;127.058;2023-09-08T05:41:51;100215.34;;;19.65;69.97
74716;BME280;63234;37.558;127.058;2023-09-08T05:44:17;100222.13;;;19.58;70.05
74716;BME280;63234;37.558;127.058;2023-09-08T05:46:43;100225.56;;;19.74;68.71
74716;BME280;63234;37.558;127.058;2023-09-08T05:49:09;100218.78;;;19.81;68.52
74716;BME280;63234;37.558;127.058;2023-09-08T05:51:35;100215.72;;;19.93;68.22
74716;BME280;63234;37.558;127.058;2023-09-08T05:54:01;100227.03;;;20.00;66.29
74716;BME280;63234;37.558;127.058;2023-09-08T05:56:31;100221.44;;;19.86;66.77
74716;BME280;63234;37.558;127.058;2023-09-08T05:58:57;100232.13;;;20.02;65.89
74716;BME280;63234;37.558;127.058;2023-09-08T06:01:24;100223.63;;;19.84;65.95
74716;BME280;63234;37.558;127.058;2023-09-08T06:03:50;100229.59;;;19.81;66.42
74716;BME280;63234;37.558;127.058;2023-09-08T06:06:16;100225.47;;;19.89;66.13
74716;BME280;63234;37.558;127.058;2023-09-08T06:08:42;100227.94;;;19.85;66.10
74716;BME280;63234;37.558;127.058;2023-09-08T06:11:08;100219.81;;;19.90;65.45
74716;BME280;63234;37.558;127.058;2023-09-08T06:13:33;100234.38;;;19.89;65.98
74716;BME280;63234;37.558;127.058;2023-09-08T06:15:59;100237.00;;;20.00;65.61
74716;BME280;63234;37.558;127.058;2023-09-08T06:18:28;100240.22;;;20.02;65.37
74716;BME280;63234;37.558;127.058;2023-09-08T06:20:54;100237.41;;;20.17;64.68
74716;BME280;63234;37.558;127.058;2023-09-08T06:23:20;100238.50;;;20.16;64.42
74716;BME280;63234;37.558;127.058;2023-09-08T06:25:47;100236.19;;;19.99;65.28
74716;BME280;63234;37.558;127.058;2023-09-08T06:28:13;100231.22;;;19.77;65.60
74716;BME280;63234;37.558;127.058;2023-09-08T06:30:38;100240.84;;;19.88;65.50
74716;BME280;63234;37.558;127.058;2023-09-08T06:33:08;100228.72;;;19.91;65.40
74716;BME280;63234;37.558;127.058;2023-09-08T06:35:34;100230.28;;;19.97;65.15
74716;BME280;63234;37.558;127.058;2023-09-08T06:38:00;100236.50;;;19.92;65.36
74716;BME280;63234;37.558;127.058;2023-09-08T06:40:26;100239.75;;;19.94;65.85
74716;BME280;63234;37.558;127.058;2023-09-08T06:42:52;100237.00;;;20.00;65.16
74716;BME280;63234;37.558;127.058;2023-09-08T06:45:18;100244.56;;;20.32;64.36
74716;BME280;63234;37.558;127.058;2023-09-08T06:47:44;100243.50;;;20.33;64.01
74716;BME280;63234;37.558;127.058;2023-09-08T06:50:10;100234.50;;;20.08;64.67
74716;BME280;63234;37.558;127.058;2023-09-08T06:52:36;100250.19;;;20.06;64.91
74716;BME280;63234;37.558;127.058;2023-09-08T06:55:02;100247.28;;;19.98;65.53
74716;BME280;63234;37.558;127.058;2023-09-08T06:57:28;100247.19;;;20.08;65.27
74716;BME280;63234;37.558;127.058;2023-09-08T06:59:54;100247.16;;;20.13;65.19
74716;BME280;63234;37.558;127.058;2023-09-08T07:02:20;100246.84;;;20.20;65.28
74716;BME280;63234;37.558;127.058;2023-09-08T07:04:46;100247.13;;;20.47;63.72
74716;BME280;63234;37.558;127.058;2023-09-08T07:07:12;100244.16;;;20.49;63.91
74716;BME280;63234;37.558;127.058;2023-09-08T07:09:38;100244.22;;;20.44;64.11
74716;BME280;63234;37.558;127.058;2023-09-08T07:12:04;100240.50;;;20.34;64.09
74716;BME280;63234;37.558;127.058;2023-09-08T07:14:31;100246.53;;;20.60;63.41
74716;BME280;63234;37.558;127.058;2023-09-08T07:16:57;100244.44;;;20.52;63.58
74716;BME280;63234;37.558;127.058;2023-09-08T07:19:24;100257.56;;;20.64;63.25
74716;BME280;63234;37.558;127.058;2023-09-08T07:21:50;100245.25;;;20.48;63.31
74716;BME280;63234;37.558;127.058;2023-09-08T07:24:16;100254.38;;;20.57;63.51
74716;BME280;63234;37.558;127.058;2023-09-08T07:26:42;100248.97;;;20.57;63.85
74716;BME280;63234;37.558;127.058;2023-09-08T07:29:08;100255.78;;;20.54;64.12
74716;BME280;63234;37.558;127.058;2023-09-08T07:31:34;100247.94;;;20.53;64.21
74716;BME280;63234;37.558;127.058;2023-09-08T07:34:00;100251.09;;;20.60;64.26
74716;BME280;63234;37.558;127.058;2023-09-08T07:36:26;100244.59;;;20.90;64.38
74716;BME280;63234;37.558;127.058;2023-09-08T07:38:52;100239.84;;;21.06;62.80
74716;BME280;63234;37.558;127.058;2023-09-08T07:41:18;100250.91;;;21.04;62.97
74716;BME280;63234;37.558;127.058;2023-09-08T07:43:44;100251.22;;;21.03;62.67
74716;BME280;63234;37.558;127.058;2023-09-08T07:46:11;100250.97;;;20.99;63.16
74716;BME280;63234;37.558;127.058;2023-09-08T07:48:37;100241.22;;;21.03;63.05
74716;BME280;63234;37.558;127.058;2023-09-08T07:51:03;100249.53;;;21.07;63.28
74716;BME280;63234;37.558;127.058;2023-09-08T07:53:29;100240.44;;;21.22;62.67
74716;BME280;63234;37.558;127.058;2023-09-08T07:55:55;100244.81;;;21.18;62.72
74716;BME280;63234;37.558;127.058;2023-09-08T07:58:22;100238.25;;;21.24;62.86
74716;BME280;63234;37.558;127.058;2023-09-08T08:00:48;100238.50;;;21.27;62.64
74716;BME280;63234;37.558;127.058;2023-09-08T08:03:13;100249.16;;;21.81;61.41
74716;BME280;63234;37.558;127.058;2023-09-08T08:05:39;100240.53;;;21.97;62.60
74716;BME280;63234;37.558;127.058;2023-09-08T08:08:05;100241.56;;;21.83;63.49
74716;BME280;63234;37.558;127.058;2023-09-08T08:10:32;100250.25;;;21.98;62.99
74716;BME280;63234;37.558;127.058;2023-09-08T08:12:58;100236.78;;;21.93;62.82
74716;BME280;63234;37.558;127.058;2023-09-08T08:15:38;100246.75;;;21.98;63.00
74716;BME280;63234;37.558;127.058;2023-09-08T08:18:07;100243.34;;;22.06;62.69
74716;BME280;63234;37.558;127.058;2023-09-08T08:20:35;100239.03;;;22.05;62.80
74716;BME280;63234;37.558;127.058;2023-09-08T08:23:02;100245.56;;;22.04;63.01
74716;BME280;63234;37.558;127.058;2023-09-08T08:25:28;100245.84;;;22.03;63.31
74716;BME280;63234;37.558;127.058;2023-09-08T08:27:54;100243.72;;;22.51;61.78
74716;BME280;63234;37.558;127.058;2023-09-08T08:30:22;100246.41;;;22.37;61.70
74716;BME280;63234;37.558;127.058;2023-09-08T08:32:48;100237.66;;;22.27;62.50
74716;BME280;63234;37.558;127.058;2023-09-08T08:35:16;100239.34;;;22.55;61.59
74716;BME280;63234;37.558;127.058;2023-09-08T08:37:43;100242.66;;;22.66;61.88
74716;BME280;63234;37.558;127.058;2023-09-08T08:40:12;100247.34;;;22.60;62.08
74716;BME280;63234;37.558;127.058;2023-09-08T08:42:39;100246.16;;;22.53;62.31
74716;BME280;63234;37.558;127.058;2023-09-08T08:45:05;100240.75;;;22.66;62.39
74716;BME280;63234;37.558;127.058;2023-09-08T08:47:32;100248.47;;;22.73;61.86
74716;BME280;63234;37.558;127.058;2023-09-08T08:49:59;100248.38;;;22.78;61.40
74716;BME280;63234;37.558;127.058;2023-09-08T08:52:28;100237.53;;;22.78;61.62
74716;BME280;63234;37.558;127.058;2023-09-08T08:54:55;100237.25;;;22.80;62.02
74716;BME280;63234;37.558;127.058;2023-09-08T08:57:24;100237.94;;;22.85;62.15
74716;BME280;63234;37.558;127.058;2023-09-08T08:59:53;100242.22;;;23.19;60.66
74716;BME280;63234;37.558;127.058;2023-09-08T09:02:19;100235.94;;;23.46;60.65
74716;BME280;63234;37.558;127.058;2023-09-08T09:04:45;100232.75;;;23.30;60.76
74716;BME280;63234;37.558;127.058;2023-09-08T09:07:12;100238.97;;;23.31;60.95
74716;BME280;63234;37.558;127.058;2023-09-08T09:09:38;100237.75;;;23.37;60.49
74716;BME280;63234;37.558;127.058;2023-09-08T09:12:06;100238.19;;;23.67;59.77
74716;BME280;63234;37.558;127.058;2023-09-08T09:14:33;100233.75;;;23.85;59.22
74716;BME280;63234;37.558;127.058;2023-09-08T09:16:59;100232.88;;;23.75;59.34
74716;BME280;63234;37.558;127.058;2023-09-08T09:19:27;100222.84;;;23.62;60.14
74716;BME280;63234;37.558;127.058;2023-09-08T09:21:54;100228.09;;;23.58;60.10
74716;BME280;63234;37.558;127.058;2023-09-08T09:24:39;100225.50;;;23.90;59.82
74716;BME280;63234;37.558;127.058;2023-09-08T09:27:13;100220.84;;;24.35;58.50
74716;BME280;63234;37.558;127.058;2023-09-08T09:29:50;100225.19;;;24.14;58.87
74716;BME280;63234;37.558;127.058;2023-09-08T09:32:23;100216.91;;;24.19;59.04
74716;BME280;63234;37.558;127.058;2023-09-08T09:34:51;100225.78;;;24.33;58.51
74716;BME280;63234;37.558;127.058;2023-09-08T09:37:19;100219.38;;;24.52;58.21
74716;BME280;63234;37.558;127.058;2023-09-08T09:39:49;100223.69;;;24.53;58.61
74716;BME280;63234;37.558;127.058;2023-09-08T09:42:15;100212.56;;;24.40;58.64
74716;BME280;63234;37.558;127.058;2023-09-08T09:44:41;100219.59;;;24.41;58.63
74716;BME280;63234;37.558;127.058;2023-09-08T09:47:07;100208.75;;;24.41;58.91
74716;BME280;63234;37.558;127.058;2023-09-08T09:49:55;100213.59;;;24.44;58.91
74716;BME280;63234;37.558;127.058;2023-09-08T09:52:24;100217.81;;;24.68;58.81
74716;BME280;63234;37.558;127.058;2023-09-08T09:54:53;100215.72;;;24.65;58.91
74716;BME280;63234;37.558;127.058;2023-09-08T09:57:22;100221.13;;;24.87;58.47
74716;BME280;63234;37.558;127.058;2023-09-08T09:59:49;100216.78;;;25.17;57.74
74716;BME280;63234;37.558;127.058;2023-09-08T10:02:18;100219.00;;;25.24;57.06
74716;BME280;63234;37.558;127.058;2023-09-08T10:04:48;100209.47;;;25.04;57.50
74716;BME280;63234;37.558;127.058;2023-09-08T10:07:18;100211.00;;;25.19;57.31
74716;BME280;63234;37.558;127.058;2023-09-08T10:09:43;100223.06;;;25.35;57.50
74716;BME280;63234;37.558;127.058;2023-09-08T10:12:13;100212.16;;;25.27;57.11
74716;BME280;63234;37.558;127.058;2023-09-08T10:14:41;100210.88;;;25.42;57.13
74716;BME280;63234;37.558;127.058;2023-09-08T10:17:15;100207.22;;;25.63;56.19
74716;BME280;63234;37.558;127.058;2023-09-08T10:19:46;100216.03;;;26.04;55.26
74716;BME280;63234;37.558;127.058;2023-09-08T10:22:20;100203.75;;;26.53;54.12
74716;BME280;63234;37.558;127.058;2023-09-08T10:24:50;100213.34;;;28.57;48.54
74716;BME280;63234;37.558;127.058;2023-09-08T10:27:16;100207.81;;;28.32;49.38
74716;BME280;63234;37.558;127.058;2023-09-08T10:29:46;100205.38;;;28.52;48.82
74716;BME280;63234;37.558;127.058;2023-09-08T10:32:13;100190.22;;;28.67;47.52
74716;BME280;63234;37.558;127.058;2023-09-08T10:34:40;100188.94;;;28.40;48.53
74716;BME280;63234;37.558;127.058;2023-09-08T10:37:21;100193.13;;;27.92;49.91
74716;BME280;63234;37.558;127.058;2023-09-08T10:39:47;100199.81;;;27.61;50.39
74716;BME280;63234;37.558;127.058;2023-09-08T10:42:24;100191.31;;;27.33;50.66
74716;BME280;63234;37.558;127.058;2023-09-08T10:44:59;100191.44;;;27.15;51.22
74716;BME280;63234;37.558;127.058;2023-09-08T10:47:32;100186.09;;;26.89;51.76
74716;BME280;63234;37.558;127.058;2023-09-08T10:50:02;100182.94;;;27.08;50.83
74716;BME280;63234;37.558;127.058;2023-09-08T10:52:29;100177.03;;;27.06;50.97
74716;BME280;63234;37.558;127.058;2023-09-08T10:54:56;100176.38;;;27.09;50.95
74716;BME280;63234;37.558;127.058;2023-09-08T10:57:23;100172.88;;;26.70;51.56
74716;BME280;63234;37.558;127.058;2023-09-08T10:59:54;100175.03;;;26.56;51.81
74716;BME280;63234;37.558;127.058;2023-09-08T11:02:49;100171.84;;;26.45;52.22
74716;BME280;63234;37.558;127.058;2023-09-08T11:05:20;100171.41;;;26.82;51.57
74716;BME280;63234;37.558;127.058;2023-09-08T11:07:48;100173.16;;;26.77;52.19
74716;BME280;63234;37.558;127.058;2023-09-08T11:10:18;100160.56;;;26.94;52.12
74716;BME280;63234;37.558;127.058;2023-09-08T11:12:45;100173.22;;;26.98;52.79
74716;BME280;63234;37.558;127.058;2023-09-08T11:15:11;100181.97;;;26.83;53.33
74716;BME280;63234;37.558;127.058;2023-09-08T11:17:38;100161.59;;;26.81;53.32
74716;BME280;63234;37.558;127.058;2023-09-08T11:20:08;100176.50;;;26.83;53.33
74716;BME280;63234;37.558;127.058;2023-09-08T11:22:39;100169.09;;;27.13;52.81
74716;BME280;63234;37.558;127.058;2023-09-08T11:25:07;100177.00;;;27.15;52.58
74716;BME280;63234;37.558;127.058;2023-09-08T11:27:34;100154.44;;;26.97;52.48
74716;BME280;63234;37.558;127.058;2023-09-08T11:30:01;100164.31;;;27.10;52.51
74716;BME280;63234;37.558;127.058;2023-09-08T11:32:34;100156.66;;;27.04;52.26
74716;BME280;63234;37.558;127.058;2023-09-08T11:35:08;100159.34;;;27.12;52.01
74716;BME280;63234;37.558;127.058;2023-09-08T11:37:39;100162.22;;;27.16;51.73
74716;BME280;63234;37.558;127.058;2023-09-08T11:40:08;100158.16;;;27.22;51.12
74716;BME280;63234;37.558;127.058;2023-09-08T11:42:40;100158.03;;;27.18;51.09
74716;BME280;63234;37.558;127.058;2023-09-08T11:45:14;100158.47;;;27.20;51.42
74716;BME280;63234;37.558;127.058;2023-09-08T11:47:43;100161.28;;;27.33;50.50
74716;BME280;63234;37.558;127.058;2023-09-08T11:50:12;100156.16;;;27.31;50.80
74716;BME280;63234;37.558;127.058;2023-09-08T11:52:48;100155.06;;;27.65;49.98
74716;BME280;63234;37.558;127.058;2023-09-08T11:55:15;100147.00;;;27.69;50.42
74716;BME280;63234;37.558;127.058;2023-09-08T11:57:42;100157.81;;;27.86;49.01
74716;BME280;63234;37.558;127.058;2023-09-08T12:00:09;100144.16;;;27.65;49.89
74716;BME280;63234;37.558;127.058;2023-09-08T12:02:40;100154.75;;;27.67;50.27
74716;BME280;63234;37.558;127.058;2023-09-08T12:05:11;100151.22;;;27.66;50.15
74716;BME280;63234;37.558;127.058;2023-09-08T12:07:38;100154.41;;;27.89;49.62
74716;BME280;63234;37.558;127.058;2023-09-08T12:10:09;100147.63;;;28.08;49.14
74716;BME280;63234;37.558;127.058;2023-09-08T12:12:42;100148.03;;;27.85;49.27
74716;BME280;63234;37.558;127.058;2023-09-08T12:15:09;100143.22;;;27.82;49.27
74716;BME280;63234;37.558;127.058;2023-09-08T12:17:49;100145.41;;;27.89;48.60
74716;BME280;63234;37.558;127.058;2023-09-08T12:20:15;100133.53;;;28.18;47.35
74716;BME280;63234;37.558;127.058;2023-09-08T12:22:49;100142.06;;;28.17;47.93
74716;BME280;63234;37.558;127.058;2023-09-08T12:25:15;100142.50;;;28.06;48.29
74716;BME280;63234;37.558;127.058;2023-09-08T12:27:42;100136.69;;;28.08;48.45
74716;BME280;63234;37.558;127.058;2023-09-08T12:30:08;100138.44;;;28.37;47.79
74716;BME280;63234;37.558;127.058;2023-09-08T12:32:35;100132.72;;;28.30;47.84
74716;BME280;63234;37.558;127.058;2023-09-08T12:35:03;100132.28;;;28.28;47.73